Aviation Digital Data Service (ADDS)

Output produced by METARs form (1034 UTC 17 June 2019)
found at http://www.aviationweather.gov/metar/data/
 
METAR text: KALO 170954Z AUTO 00000KT 9SM OVC011 14/13 A2997 RMK AO2 SLP145 T01440133 $
Conditions at: KALO (WATERLOO , IA, US) observed 0954 UTC 17 June 2019
Temperature: 14.4°C (58°F)
Dewpoint: 13.3°C (56°F) [RH = 93%]
Pressure (altimeter): 29.97 inches Hg (1015.0 mb)
[Sea-level pressure: 1014.5 mb]
Winds: calm
Visibility: 9 miles (14 km)
Ceiling: 1100 feet AGL
Clouds: overcast cloud deck at 1100 feet AGL
Weather:
SOME DATA ABOVE MAY BE INACCURATE!!!
"$" is an indication the sensor requires maintenance

METAR text: KALO 170922Z AUTO 00000KT 3SM BR BKN013 14/13 A2996 RMK AO2 T01390128 $
Conditions at: KALO (WATERLOO , IA, US) observed 0922 UTC 17 June 2019
Temperature: 13.9°C (57°F)
Dewpoint: 12.8°C (55°F) [RH = 93%]
Pressure (altimeter): 29.96 inches Hg (1014.6 mb)
Winds: calm
Visibility: 3 miles ( 5 km)
Ceiling: 1300 feet AGL
Clouds: broken clouds at 1300 feet AGL
Weather: BR  (mist)
SOME DATA ABOVE MAY BE INACCURATE!!!
"$" is an indication the sensor requires maintenance

METAR text: KALO 170917Z AUTO 00000KT 1SM R12/P6000FT BR BKN013 14/13 A2996 RMK AO2 T01390128 $
Conditions at: KALO (WATERLOO , IA, US) observed 0917 UTC 17 June 2019
Temperature: 13.9°C (57°F)
Dewpoint: 12.8°C (55°F) [RH = 93%]
Pressure (altimeter): 29.96 inches Hg (1014.6 mb)
Winds: calm
Visibility: 1.00 miles (1.61 km)
Ceiling: 1300 feet AGL
Clouds: broken clouds at 1300 feet AGL
Weather: BR  (mist)
SOME DATA ABOVE MAY BE INACCURATE!!!
"$" is an indication the sensor requires maintenance

METAR text: KALO 170910Z AUTO 00000KT 1 1/4SM BR SCT013 14/13 A2996 RMK AO2 VIS 1/2V5 T01390128 $
Conditions at: KALO (WATERLOO , IA, US) observed 0910 UTC 17 June 2019
Temperature: 13.9°C (57°F)
Dewpoint: 12.8°C (55°F) [RH = 93%]
Pressure (altimeter): 29.96 inches Hg (1014.6 mb)
Winds: calm
Visibility: 1.25 miles (2.01 km)
Ceiling: at least 12,000 feet AGL
Clouds: scattered clouds at 1300 feet AGL
Weather: BR  (mist)
SOME DATA ABOVE MAY BE INACCURATE!!!
"$" is an indication the sensor requires maintenance

METAR text: KALO 170854Z AUTO 00000KT 7SM CLR 13/13 A2995 RMK AO2 SLP140 T01330128 $
Conditions at: KALO (WATERLOO , IA, US) observed 0854 UTC 17 June 2019
Temperature: 13.3°C (56°F)
Dewpoint: 12.8°C (55°F) [RH = 97%]
Pressure (altimeter): 29.95 inches Hg (1014.3 mb)
[Sea-level pressure: 1014.0 mb]
Winds: calm
Visibility: 7 miles (11 km)
Ceiling: at least 12,000 feet AGL
Clouds: sky clear below 12,000 feet AGL
Weather:
SOME DATA ABOVE MAY BE INACCURATE!!!
"$" is an indication the sensor requires maintenance

METAR text: KALO 170754Z AUTO 05003KT 4SM BR CLR 14/13 A2994 RMK AO2 SLP135 T01440133 $
Conditions at: KALO (WATERLOO , IA, US) observed 0754 UTC 17 June 2019
Temperature: 14.4°C (58°F)
Dewpoint: 13.3°C (56°F) [RH = 93%]
Pressure (altimeter): 29.94 inches Hg (1014.0 mb)
[Sea-level pressure: 1013.5 mb]
Winds: from the NE (50 degrees) at 3 MPH (3 knots; 1.5 m/s)
Visibility: 4 miles ( 6 km)
Ceiling: at least 12,000 feet AGL
Clouds: sky clear below 12,000 feet AGL
Weather: BR  (mist)
SOME DATA ABOVE MAY BE INACCURATE!!!
"$" is an indication the sensor requires maintenance

METAR text: KALO 170654Z AUTO 00000KT 5SM BR CLR 15/14 A2995 RMK AO2 SLP140 T01500139 $
Conditions at: KALO (WATERLOO , IA, US) observed 0654 UTC 17 June 2019
Temperature: 15.0°C (59°F)
Dewpoint: 13.9°C (57°F) [RH = 93%]
Pressure (altimeter): 29.95 inches Hg (1014.3 mb)
[Sea-level pressure: 1014.0 mb]
Winds: calm
Visibility: 5 miles ( 8 km)
Ceiling: at least 12,000 feet AGL
Clouds: sky clear below 12,000 feet AGL
Weather: BR  (mist)
SOME DATA ABOVE MAY BE INACCURATE!!!
"$" is an indication the sensor requires maintenance

METAR text: KALO 170554Z AUTO 09003KT 7SM CLR 15/14 A2995 RMK AO2 SLP139 T01500139 10222 20150 402330150 51008 $
Conditions at: KALO (WATERLOO , IA, US) observed 0554 UTC 17 June 2019
Temperature: 15.0°C (59°F)
Dewpoint: 13.9°C (57°F) [RH = 93%]
Pressure (altimeter): 29.95 inches Hg (1014.3 mb)
[Sea-level pressure: 1013.9 mb]
Winds: from the E (90 degrees) at 3 MPH (3 knots; 1.5 m/s)
Visibility: 7 miles (11 km)
Ceiling: at least 12,000 feet AGL
Clouds: sky clear below 12,000 feet AGL
Weather:
SOME DATA ABOVE MAY BE INACCURATE!!!
"$" is an indication the sensor requires maintenance

METAR text: KALO 170502Z AUTO 12005KT 9SM SCT020 17/14 A2995 RMK AO2 T01670144 $
Conditions at: KALO (WATERLOO , IA, US) observed 0502 UTC 17 June 2019
Temperature: 16.7°C (62°F)
Dewpoint: 14.4°C (58°F) [RH = 86%]
Pressure (altimeter): 29.95 inches Hg (1014.3 mb)
Winds: from the ESE (120 degrees) at 6 MPH (5 knots; 2.6 m/s)
Visibility: 9 miles (14 km)
Ceiling: at least 12,000 feet AGL
Clouds: scattered clouds at 2000 feet AGL
Weather:
SOME DATA ABOVE MAY BE INACCURATE!!!
"$" is an indication the sensor requires maintenance

METAR text: KALO 170454Z AUTO 12005KT 10SM BKN022 17/14 A2995 RMK AO2 SLP139 T01670144 $
Conditions at: KALO (WATERLOO , IA, US) observed 0454 UTC 17 June 2019
Temperature: 16.7°C (62°F)
Dewpoint: 14.4°C (58°F) [RH = 86%]
Pressure (altimeter): 29.95 inches Hg (1014.3 mb)
[Sea-level pressure: 1013.9 mb]
Winds: from the ESE (120 degrees) at 6 MPH (5 knots; 2.6 m/s)
Visibility: 10 or more miles (16+ km)
Ceiling: 2200 feet AGL
Clouds: broken clouds at 2200 feet AGL
Weather:
SOME DATA ABOVE MAY BE INACCURATE!!!
"$" is an indication the sensor requires maintenance

METAR text: KALO 170410Z AUTO 11004KT 10SM BKN022 17/14 A2995 RMK AO2 T01670144 $
Conditions at: KALO (WATERLOO , IA, US) observed 0410 UTC 17 June 2019
Temperature: 16.7°C (62°F)
Dewpoint: 14.4°C (58°F) [RH = 86%]
Pressure (altimeter): 29.95 inches Hg (1014.3 mb)
Winds: from the ESE (110 degrees) at 5 MPH (4 knots; 2.1 m/s)
Visibility: 10 or more miles (16+ km)
Ceiling: 2200 feet AGL
Clouds: broken clouds at 2200 feet AGL
Weather:
SOME DATA ABOVE MAY BE INACCURATE!!!
"$" is an indication the sensor requires maintenance

METAR text: KALO 170354Z AUTO 10004KT 10SM FEW023 16/14 A2995 RMK AO2 SLP140 T01610139 $
Conditions at: KALO (WATERLOO , IA, US) observed 0354 UTC 17 June 2019
Temperature: 16.1°C (61°F)
Dewpoint: 13.9°C (57°F) [RH = 87%]
Pressure (altimeter): 29.95 inches Hg (1014.3 mb)
[Sea-level pressure: 1014.0 mb]
Winds: from the E (100 degrees) at 5 MPH (4 knots; 2.1 m/s)
Visibility: 10 or more miles (16+ km)
Ceiling: at least 12,000 feet AGL
Clouds: few clouds at 2300 feet AGL
Weather:
SOME DATA ABOVE MAY BE INACCURATE!!!
"$" is an indication the sensor requires maintenance

METAR text: KALO 170254Z AUTO 07006KT 10SM CLR 17/14 A2993 RMK AO2 SLP132 T01670144 53019 $
Conditions at: KALO (WATERLOO , IA, US) observed 0254 UTC 17 June 2019
Temperature: 16.7°C (62°F)
Dewpoint: 14.4°C (58°F) [RH = 86%]
Pressure (altimeter): 29.93 inches Hg (1013.6 mb)
[Sea-level pressure: 1013.2 mb]
Winds: from the ENE (70 degrees) at 7 MPH (6 knots; 3.1 m/s)
Visibility: 10 or more miles (16+ km)
Ceiling: at least 12,000 feet AGL
Clouds: sky clear below 12,000 feet AGL
Weather:
SOME DATA ABOVE MAY BE INACCURATE!!!
"$" is an indication the sensor requires maintenance

METAR text: KALO 170154Z AUTO 08006KT 10SM CLR 19/15 A2990 RMK AO2 SLP123 T01890150 $
Conditions at: KALO (WATERLOO , IA, US) observed 0154 UTC 17 June 2019
Temperature: 18.9°C (66°F)
Dewpoint: 15.0°C (59°F) [RH = 78%]
Pressure (altimeter): 29.90 inches Hg (1012.6 mb)
[Sea-level pressure: 1012.3 mb]
Winds: from the E (80 degrees) at 7 MPH (6 knots; 3.1 m/s)
Visibility: 10 or more miles (16+ km)
Ceiling: at least 12,000 feet AGL
Clouds: sky clear below 12,000 feet AGL
Weather:
SOME DATA ABOVE MAY BE INACCURATE!!!
"$" is an indication the sensor requires maintenance

METAR text: KALO 170116Z AUTO 07007KT 10SM SCT024 20/16 A2989 RMK AO2 T02000156 $
Conditions at: KALO (WATERLOO , IA, US) observed 0116 UTC 17 June 2019
Temperature: 20.0°C (68°F)
Dewpoint: 15.6°C (60°F) [RH = 76%]
Pressure (altimeter): 29.89 inches Hg (1012.3 mb)
Winds: from the ENE (70 degrees) at 8 MPH (7 knots; 3.6 m/s)
Visibility: 10 or more miles (16+ km)
Ceiling: at least 12,000 feet AGL
Clouds: scattered clouds at 2400 feet AGL
Weather:
SOME DATA ABOVE MAY BE INACCURATE!!!
"$" is an indication the sensor requires maintenance

METAR text: KALO 170109Z AUTO 08007KT 10SM BKN024 20/16 A2988 RMK AO2 T02000156 $
Conditions at: KALO (WATERLOO , IA, US) observed 0109 UTC 17 June 2019
Temperature: 20.0°C (68°F)
Dewpoint: 15.6°C (60°F) [RH = 76%]
Pressure (altimeter): 29.88 inches Hg (1011.9 mb)
Winds: from the E (80 degrees) at 8 MPH (7 knots; 3.6 m/s)
Visibility: 10 or more miles (16+ km)
Ceiling: 2400 feet AGL
Clouds: broken clouds at 2400 feet AGL
Weather:
SOME DATA ABOVE MAY BE INACCURATE!!!
"$" is an indication the sensor requires maintenance

METAR text: KALO 170102Z AUTO 08008KT 10SM SCT026 21/16 A2988 RMK AO2 T02060156 $
Conditions at: KALO (WATERLOO , IA, US) observed 0102 UTC 17 June 2019
Temperature: 20.6°C (69°F)
Dewpoint: 15.6°C (60°F) [RH = 73%]
Pressure (altimeter): 29.88 inches Hg (1011.9 mb)
Winds: from the E (80 degrees) at 9 MPH (8 knots; 4.1 m/s)
Visibility: 10 or more miles (16+ km)
Ceiling: at least 12,000 feet AGL
Clouds: scattered clouds at 2600 feet AGL
Weather:
SOME DATA ABOVE MAY BE INACCURATE!!!
"$" is an indication the sensor requires maintenance

METAR text: KALO 170054Z AUTO 07008KT 10SM BKN026 21/16 A2988 RMK AO2 SLP115 T02060156 $
Conditions at: KALO (WATERLOO , IA, US) observed 0054 UTC 17 June 2019
Temperature: 20.6°C (69°F)
Dewpoint: 15.6°C (60°F) [RH = 73%]
Pressure (altimeter): 29.88 inches Hg (1011.9 mb)
[Sea-level pressure: 1011.5 mb]
Winds: from the ENE (70 degrees) at 9 MPH (8 knots; 4.1 m/s)
Visibility: 10 or more miles (16+ km)
Ceiling: 2600 feet AGL
Clouds: broken clouds at 2600 feet AGL
Weather:
SOME DATA ABOVE MAY BE INACCURATE!!!
"$" is an indication the sensor requires maintenance

METAR text: KALO 170019Z 07008KT 10SM BKN024 22/16 A2988 RMK AO2 T02170161 $
Conditions at: KALO (WATERLOO , IA, US) observed 0019 UTC 17 June 2019
Temperature: 21.7°C (71°F)
Dewpoint: 16.1°C (61°F) [RH = 70%]
Pressure (altimeter): 29.88 inches Hg (1011.9 mb)
Winds: from the ENE (70 degrees) at 9 MPH (8 knots; 4.1 m/s)
Visibility: 10 or more miles (16+ km)
Ceiling: 2400 feet AGL
Clouds: broken clouds at 2400 feet AGL
Weather:
SOME DATA ABOVE MAY BE INACCURATE!!!
"$" is an indication the sensor requires maintenance

METAR text: KALO 162354Z 05007KT 10SM FEW024 22/16 A2987 RMK AO2 SLP112 T02220161 10233 20211 56008 $
Conditions at: KALO (WATERLOO , IA, US) observed 2354 UTC 16 June 2019
Temperature: 22.2°C (72°F)
Dewpoint: 16.1°C (61°F) [RH = 68%]
Pressure (altimeter): 29.87 inches Hg (1011.6 mb)
[Sea-level pressure: 1011.2 mb]
Winds: from the NE (50 degrees) at 8 MPH (7 knots; 3.6 m/s)
Visibility: 10 or more miles (16+ km)
Ceiling: at least 12,000 feet AGL
Clouds: few clouds at 2400 feet AGL
Weather:
SOME DATA ABOVE MAY BE INACCURATE!!!
"$" is an indication the sensor requires maintenance

METAR text: KALO 162254Z 03005KT 10SM FEW026 23/16 A2988 RMK AO2 SLP116 T02280161 $
Conditions at: KALO (WATERLOO , IA, US) observed 2254 UTC 16 June 2019
Temperature: 22.8°C (73°F)
Dewpoint: 16.1°C (61°F) [RH = 66%]
Pressure (altimeter): 29.88 inches Hg (1011.9 mb)
[Sea-level pressure: 1011.6 mb]
Winds: from the NNE (30 degrees) at 6 MPH (5 knots; 2.6 m/s)
Visibility: 10 or more miles (16+ km)
Ceiling: at least 12,000 feet AGL
Clouds: few clouds at 2600 feet AGL
Weather:
SOME DATA ABOVE MAY BE INACCURATE!!!
"$" is an indication the sensor requires maintenance

METAR text: KALO 162249Z 02006KT 10SM SCT026 23/16 A2988 RMK AO2 $
Conditions at: KALO (WATERLOO , IA, US) observed 2249 UTC 16 June 2019
Temperature: 23.0°C (73°F)
Dewpoint: 16.0°C (61°F) [RH = 65%]
Pressure (altimeter): 29.88 inches Hg (1011.9 mb)
Winds: from the NNE (20 degrees) at 7 MPH (6 knots; 3.1 m/s)
Visibility: 10 or more miles (16+ km)
Ceiling: at least 12,000 feet AGL
Clouds: scattered clouds at 2600 feet AGL
Weather:
SOME DATA ABOVE MAY BE INACCURATE!!!
"$" is an indication the sensor requires maintenance

METAR text: KALO 162154Z 02006KT 10SM OVC024 22/16 A2990 RMK AO2 SLP121 T02170161 $
Conditions at: KALO (WATERLOO , IA, US) observed 2154 UTC 16 June 2019
Temperature: 21.7°C (71°F)
Dewpoint: 16.1°C (61°F) [RH = 70%]
Pressure (altimeter): 29.90 inches Hg (1012.6 mb)
[Sea-level pressure: 1012.1 mb]
Winds: from the NNE (20 degrees) at 7 MPH (6 knots; 3.1 m/s)
Visibility: 10 or more miles (16+ km)
Ceiling: 2400 feet AGL
Clouds: overcast cloud deck at 2400 feet AGL
Weather:
SOME DATA ABOVE MAY BE INACCURATE!!!
"$" is an indication the sensor requires maintenance

METAR text: KALO 162054Z 01006KT 10SM OVC024 22/16 A2989 RMK AO2 SLP120 T02170161 53008 $
Conditions at: KALO (WATERLOO , IA, US) observed 2054 UTC 16 June 2019
Temperature: 21.7°C (71°F)
Dewpoint: 16.1°C (61°F) [RH = 70%]
Pressure (altimeter): 29.89 inches Hg (1012.3 mb)
[Sea-level pressure: 1012.0 mb]
Winds: from the N (10 degrees) at 7 MPH (6 knots; 3.1 m/s)
Visibility: 10 or more miles (16+ km)
Ceiling: 2400 feet AGL
Clouds: overcast cloud deck at 2400 feet AGL
Weather:
SOME DATA ABOVE MAY BE INACCURATE!!!
"$" is an indication the sensor requires maintenance

METAR text: KALO 161954Z 34010KT 10SM OVC021 22/16 A2987 RMK AO2 SLP113 T02170161 $
Conditions at: KALO (WATERLOO , IA, US) observed 1954 UTC 16 June 2019
Temperature: 21.7°C (71°F)
Dewpoint: 16.1°C (61°F) [RH = 70%]
Pressure (altimeter): 29.87 inches Hg (1011.6 mb)
[Sea-level pressure: 1011.3 mb]
Winds: from the NNW (340 degrees) at 12 MPH (10 knots; 5.1 m/s)
Visibility: 10 or more miles (16+ km)
Ceiling: 2100 feet AGL
Clouds: overcast cloud deck at 2100 feet AGL
Weather:
SOME DATA ABOVE MAY BE INACCURATE!!!
"$" is an indication the sensor requires maintenance

METAR text: KALO 161854Z 36005KT 10SM OVC018 22/16 A2987 RMK AO2 SLP112 T02170156 $
Conditions at: KALO (WATERLOO , IA, US) observed 1854 UTC 16 June 2019
Temperature: 21.7°C (71°F)
Dewpoint: 15.6°C (60°F) [RH = 68%]
Pressure (altimeter): 29.87 inches Hg (1011.6 mb)
[Sea-level pressure: 1011.2 mb]
Winds: from the N (360 degrees) at 6 MPH (5 knots; 2.6 m/s)
Visibility: 10 or more miles (16+ km)
Ceiling: 1800 feet AGL
Clouds: overcast cloud deck at 1800 feet AGL
Weather:
SOME DATA ABOVE MAY BE INACCURATE!!!
"$" is an indication the sensor requires maintenance

METAR text: KALO 161754Z 36007KT 10SM OVC016 21/16 A2987 RMK AO2 SLP112 T02110156 10211 20156 58007 $
Conditions at: KALO (WATERLOO , IA, US) observed 1754 UTC 16 June 2019
Temperature: 21.1°C (70°F)
Dewpoint: 15.6°C (60°F) [RH = 71%]
Pressure (altimeter): 29.87 inches Hg (1011.6 mb)
[Sea-level pressure: 1011.2 mb]
Winds: from the N (360 degrees) at 8 MPH (7 knots; 3.6 m/s)
Visibility: 10 or more miles (16+ km)
Ceiling: 1600 feet AGL
Clouds: overcast cloud deck at 1600 feet AGL
Weather:
SOME DATA ABOVE MAY BE INACCURATE!!!
"$" is an indication the sensor requires maintenance

METAR text: KALO 161720Z 34006KT 10SM OVC015 20/15 A2988 RMK AO2 T02000150 $
Conditions at: KALO (WATERLOO , IA, US) observed 1720 UTC 16 June 2019
Temperature: 20.0°C (68°F)
Dewpoint: 15.0°C (59°F) [RH = 73%]
Pressure (altimeter): 29.88 inches Hg (1011.9 mb)
Winds: from the NNW (340 degrees) at 7 MPH (6 knots; 3.1 m/s)
Visibility: 10 or more miles (16+ km)
Ceiling: 1500 feet AGL
Clouds: overcast cloud deck at 1500 feet AGL
Weather:
SOME DATA ABOVE MAY BE INACCURATE!!!
"$" is an indication the sensor requires maintenance

METAR text: KALO 161654Z 33004KT 10SM OVC014 20/15 A2989 RMK AO2 SLP118 T02000150 $
Conditions at: KALO (WATERLOO , IA, US) observed 1654 UTC 16 June 2019
Temperature: 20.0°C (68°F)
Dewpoint: 15.0°C (59°F) [RH = 73%]
Pressure (altimeter): 29.89 inches Hg (1012.3 mb)
[Sea-level pressure: 1011.8 mb]
Winds: from the NNW (330 degrees) at 5 MPH (4 knots; 2.1 m/s)
Visibility: 10 or more miles (16+ km)
Ceiling: 1400 feet AGL
Clouds: overcast cloud deck at 1400 feet AGL
Weather:
SOME DATA ABOVE MAY BE INACCURATE!!!
"$" is an indication the sensor requires maintenance

METAR text: KALO 161554Z 00000KT 10SM OVC010 18/14 A2990 RMK AO2 SLP121 T01830144 $
Conditions at: KALO (WATERLOO , IA, US) observed 1554 UTC 16 June 2019
Temperature: 18.3°C (65°F)
Dewpoint: 14.4°C (58°F) [RH = 78%]
Pressure (altimeter): 29.90 inches Hg (1012.6 mb)
[Sea-level pressure: 1012.1 mb]
Winds: calm
Visibility: 10 or more miles (16+ km)
Ceiling: 1000 feet AGL
Clouds: overcast cloud deck at 1000 feet AGL
Weather:
SOME DATA ABOVE MAY BE INACCURATE!!!
"$" is an indication the sensor requires maintenance

METAR text: KALO 161454Z 01006KT 10SM OVC009 17/14 A2989 RMK AO2 SLP120 T01670139 53017 $
Conditions at: KALO (WATERLOO , IA, US) observed 1454 UTC 16 June 2019
Temperature: 16.7°C (62°F)
Dewpoint: 13.9°C (57°F) [RH = 84%]
Pressure (altimeter): 29.89 inches Hg (1012.3 mb)
[Sea-level pressure: 1012.0 mb]
Winds: from the N (10 degrees) at 7 MPH (6 knots; 3.1 m/s)
Visibility: 10 or more miles (16+ km)
Ceiling: 900 feet AGL
Clouds: overcast cloud deck at 900 feet AGL
Weather:
SOME DATA ABOVE MAY BE INACCURATE!!!
"$" is an indication the sensor requires maintenance

METAR text: KALO 161354Z 03005KT 10SM OVC006 16/14 A2987 RMK AO2 SLP113 T01560139 $
Conditions at: KALO (WATERLOO , IA, US) observed 1354 UTC 16 June 2019
Temperature: 15.6°C (60°F)
Dewpoint: 13.9°C (57°F) [RH = 90%]
Pressure (altimeter): 29.87 inches Hg (1011.6 mb)
[Sea-level pressure: 1011.3 mb]
Winds: from the NNE (30 degrees) at 6 MPH (5 knots; 2.6 m/s)
Visibility: 10 or more miles (16+ km)
Ceiling: 600 feet AGL
Clouds: overcast cloud deck at 600 feet AGL
Weather:
SOME DATA ABOVE MAY BE INACCURATE!!!
"$" is an indication the sensor requires maintenance

METAR text: KALO 161254Z 06007KT 10SM OVC008 16/14 A2986 RMK AO2 SLP108 T01560144 $
Conditions at: KALO (WATERLOO , IA, US) observed 1254 UTC 16 June 2019
Temperature: 15.6°C (60°F)
Dewpoint: 14.4°C (58°F) [RH = 93%]
Pressure (altimeter): 29.86 inches Hg (1011.3 mb)
[Sea-level pressure: 1010.8 mb]
Winds: from the ENE (60 degrees) at 8 MPH (7 knots; 3.6 m/s)
Visibility: 10 or more miles (16+ km)
Ceiling: 800 feet AGL
Clouds: overcast cloud deck at 800 feet AGL
Weather:
SOME DATA ABOVE MAY BE INACCURATE!!!
"$" is an indication the sensor requires maintenance

METAR text: KALO 161154Z 04007KT 7SM OVC007 16/14 A2984 RMK AO2 SLP103 70021 T01560144 10167 20156 53023 $
Conditions at: KALO (WATERLOO , IA, US) observed 1154 UTC 16 June 2019
Temperature: 15.6°C (60°F)
Dewpoint: 14.4°C (58°F) [RH = 93%]
Pressure (altimeter): 29.84 inches Hg (1010.6 mb)
[Sea-level pressure: 1010.3 mb]
Winds: from the NE (40 degrees) at 8 MPH (7 knots; 3.6 m/s)
Visibility: 7 miles (11 km)
Ceiling: 700 feet AGL
Clouds: overcast cloud deck at 700 feet AGL
Weather:
SOME DATA ABOVE MAY BE INACCURATE!!!
"$" is an indication the sensor requires maintenance

METAR text: KALO 161054Z 03005KT 7SM OVC007 16/14 A2980 RMK AO2 CIG 004V011 SLP089 T01560144 $
Conditions at: KALO (WATERLOO , IA, US) observed 1054 UTC 16 June 2019
Temperature: 15.6°C (60°F)
Dewpoint: 14.4°C (58°F) [RH = 93%]
Pressure (altimeter): 29.80 inches Hg (1009.2 mb)
[Sea-level pressure: 1008.9 mb]
Winds: from the NNE (30 degrees) at 6 MPH (5 knots; 2.6 m/s)
Visibility: 7 miles (11 km)
Ceiling: 700 feet AGL
Clouds: overcast cloud deck at 700 feet AGL
Weather:
SOME DATA ABOVE MAY BE INACCURATE!!!
"$" is an indication the sensor requires maintenance

METAR text: KALO 161016Z AUTO 01007KT 9SM OVC005 16/14 A2978 RMK AO2 CIG 004V008 T01560144 $
Conditions at: KALO (WATERLOO , IA, US) observed 1016 UTC 16 June 2019
Temperature: 15.6°C (60°F)
Dewpoint: 14.4°C (58°F) [RH = 93%]
Pressure (altimeter): 29.78 inches Hg (1008.5 mb)
Winds: from the N (10 degrees) at 8 MPH (7 knots; 3.6 m/s)
Visibility: 9 miles (14 km)
Ceiling: 500 feet AGL
Clouds: overcast cloud deck at 500 feet AGL
Weather:
SOME DATA ABOVE MAY BE INACCURATE!!!
"$" is an indication the sensor requires maintenance

METAR text: KALO 160954Z AUTO 01007KT 4SM BR OVC004 16/14 A2976 RMK AO2 CIG 003V007 SLP075 T01560144 $
Conditions at: KALO (WATERLOO , IA, US) observed 0954 UTC 16 June 2019
Temperature: 15.6°C (60°F)
Dewpoint: 14.4°C (58°F) [RH = 93%]
Pressure (altimeter): 29.76 inches Hg (1007.9 mb)
[Sea-level pressure: 1007.5 mb]
Winds: from the N (10 degrees) at 8 MPH (7 knots; 3.6 m/s)
Visibility: 4 miles ( 6 km)
Ceiling: 400 feet AGL
Clouds: overcast cloud deck at 400 feet AGL
Weather: BR  (mist)
SOME DATA ABOVE MAY BE INACCURATE!!!
"$" is an indication the sensor requires maintenance

METAR text: KALO 160946Z AUTO 36007KT 3SM BR OVC004 16/14 A2976 RMK AO2 CIG 003V007 T01560144 $
Conditions at: KALO (WATERLOO , IA, US) observed 0946 UTC 16 June 2019
Temperature: 15.6°C (60°F)
Dewpoint: 14.4°C (58°F) [RH = 93%]
Pressure (altimeter): 29.76 inches Hg (1007.9 mb)
Winds: from the N (360 degrees) at 8 MPH (7 knots; 3.6 m/s)
Visibility: 3 miles ( 5 km)
Ceiling: 400 feet AGL
Clouds: overcast cloud deck at 400 feet AGL
Weather: BR  (mist)
SOME DATA ABOVE MAY BE INACCURATE!!!
"$" is an indication the sensor requires maintenance

METAR text: KALO 160923Z AUTO 36010KT 5SM BR BKN005 OVC009 16/15 A2976 RMK AO2 CIG 003V007 T01610150 $
Conditions at: KALO (WATERLOO , IA, US) observed 0923 UTC 16 June 2019
Temperature: 16.1°C (61°F)
Dewpoint: 15.0°C (59°F) [RH = 93%]
Pressure (altimeter): 29.76 inches Hg (1007.9 mb)
Winds: from the N (360 degrees) at 12 MPH (10 knots; 5.1 m/s)
Visibility: 5 miles ( 8 km)
Ceiling: 500 feet AGL
Clouds: broken clouds at 500 feet AGL
overcast cloud deck at 900 feet AGL
Weather: BR  (mist)
SOME DATA ABOVE MAY BE INACCURATE!!!
"$" is an indication the sensor requires maintenance

METAR text: KALO 160902Z AUTO 02006KT 3SM BR BKN004 OVC009 16/15 A2977 RMK AO2 CIG 003V007 T01610150 $
Conditions at: KALO (WATERLOO , IA, US) observed 0902 UTC 16 June 2019
Temperature: 16.1°C (61°F)
Dewpoint: 15.0°C (59°F) [RH = 93%]
Pressure (altimeter): 29.77 inches Hg (1008.2 mb)
Winds: from the NNE (20 degrees) at 7 MPH (6 knots; 3.1 m/s)
Visibility: 3 miles ( 5 km)
Ceiling: 400 feet AGL
Clouds: broken clouds at 400 feet AGL
overcast cloud deck at 900 feet AGL
Weather: BR  (mist)
SOME DATA ABOVE MAY BE INACCURATE!!!
"$" is an indication the sensor requires maintenance

METAR text: KALO 160854Z AUTO 01006KT 2 1/2SM BR OVC007 16/15 A2977 RMK AO2 CIG 003V010 SLP077 T01610150 50004 $
Conditions at: KALO (WATERLOO , IA, US) observed 0854 UTC 16 June 2019
Temperature: 16.1°C (61°F)
Dewpoint: 15.0°C (59°F) [RH = 93%]
Pressure (altimeter): 29.77 inches Hg (1008.2 mb)
[Sea-level pressure: 1007.7 mb]
Winds: from the N (10 degrees) at 7 MPH (6 knots; 3.1 m/s)
Visibility: 2.50 miles (4.02 km)
Ceiling: 700 feet AGL
Clouds: overcast cloud deck at 700 feet AGL
Weather: BR  (mist)
SOME DATA ABOVE MAY BE INACCURATE!!!
"$" is an indication the sensor requires maintenance

METAR text: KALO 160754Z AUTO 02006KT 9SM OVC006 17/16 A2978 RMK AO2 SLP080 T01670156 $
Conditions at: KALO (WATERLOO , IA, US) observed 0754 UTC 16 June 2019
Temperature: 16.7°C (62°F)
Dewpoint: 15.6°C (60°F) [RH = 93%]
Pressure (altimeter): 29.78 inches Hg (1008.5 mb)
[Sea-level pressure: 1008.0 mb]
Winds: from the NNE (20 degrees) at 7 MPH (6 knots; 3.1 m/s)
Visibility: 9 miles (14 km)
Ceiling: 600 feet AGL
Clouds: overcast cloud deck at 600 feet AGL
Weather:
SOME DATA ABOVE MAY BE INACCURATE!!!
"$" is an indication the sensor requires maintenance

METAR text: KALO 160654Z AUTO 03006KT 10SM OVC007 17/15 A2976 RMK AO2 SLP072 T01670150 $
Conditions at: KALO (WATERLOO , IA, US) observed 0654 UTC 16 June 2019
Temperature: 16.7°C (62°F)
Dewpoint: 15.0°C (59°F) [RH = 90%]
Pressure (altimeter): 29.76 inches Hg (1007.9 mb)
[Sea-level pressure: 1007.2 mb]
Winds: from the NNE (30 degrees) at 7 MPH (6 knots; 3.1 m/s)
Visibility: 10 or more miles (16+ km)
Ceiling: 700 feet AGL
Clouds: overcast cloud deck at 700 feet AGL
Weather:
SOME DATA ABOVE MAY BE INACCURATE!!!
"$" is an indication the sensor requires maintenance

METAR text: KALO 160608Z AUTO 35006KT 10SM OVC008 17/15 A2976 RMK AO2 T01670150 $
Conditions at: KALO (WATERLOO , IA, US) observed 0608 UTC 16 June 2019
Temperature: 16.7°C (62°F)
Dewpoint: 15.0°C (59°F) [RH = 90%]
Pressure (altimeter): 29.76 inches Hg (1007.9 mb)
Winds: from the N (350 degrees) at 7 MPH (6 knots; 3.1 m/s)
Visibility: 10 or more miles (16+ km)
Ceiling: 800 feet AGL
Clouds: overcast cloud deck at 800 feet AGL
Weather:
SOME DATA ABOVE MAY BE INACCURATE!!!
"$" is an indication the sensor requires maintenance

METAR text: KALO 160554Z AUTO 01008KT 10SM OVC011 17/15 A2976 RMK AO2 CIG 008V012 SLP072 60012 T01670150 10189 20156 402830156 53010 $
Conditions at: KALO (WATERLOO , IA, US) observed 0554 UTC 16 June 2019
Temperature: 16.7°C (62°F)
Dewpoint: 15.0°C (59°F) [RH = 90%]
Pressure (altimeter): 29.76 inches Hg (1007.9 mb)
[Sea-level pressure: 1007.2 mb]
Winds: from the N (10 degrees) at 9 MPH (8 knots; 4.1 m/s)
Visibility: 10 or more miles (16+ km)
Ceiling: 1100 feet AGL
Clouds: overcast cloud deck at 1100 feet AGL
Weather:
SOME DATA ABOVE MAY BE INACCURATE!!!
"$" is an indication the sensor requires maintenance

METAR text: KALO 160542Z AUTO 35007KT 10SM BKN011 17/15 A2976 RMK AO2 T01670150 $
Conditions at: KALO (WATERLOO , IA, US) observed 0542 UTC 16 June 2019
Temperature: 16.7°C (62°F)
Dewpoint: 15.0°C (59°F) [RH = 90%]
Pressure (altimeter): 29.76 inches Hg (1007.9 mb)
Winds: from the N (350 degrees) at 8 MPH (7 knots; 3.6 m/s)
Visibility: 10 or more miles (16+ km)
Ceiling: 1100 feet AGL
Clouds: broken clouds at 1100 feet AGL
Weather:
SOME DATA ABOVE MAY BE INACCURATE!!!
"$" is an indication the sensor requires maintenance

METAR text: KALO 160454Z AUTO 02008KT 10SM CLR 16/14 A2975 RMK AO2 PRESRR SLP071 T01610144 $
Conditions at: KALO (WATERLOO , IA, US) observed 0454 UTC 16 June 2019
Temperature: 16.1°C (61°F)
Dewpoint: 14.4°C (58°F) [RH = 90%]
Pressure (altimeter): 29.75 inches Hg (1007.5 mb)
[Sea-level pressure: 1007.1 mb]
Winds: from the NNE (20 degrees) at 9 MPH (8 knots; 4.1 m/s)
Visibility: 10 or more miles (16+ km)
Ceiling: at least 12,000 feet AGL
Clouds: sky clear below 12,000 feet AGL
Weather:
SOME DATA ABOVE MAY BE INACCURATE!!!
"$" is an indication the sensor requires maintenance

METAR text: KALO 160354Z AUTO 11003KT 10SM CLR 17/15 A2972 RMK AO2 SLP061 T01720150 $
Conditions at: KALO (WATERLOO , IA, US) observed 0354 UTC 16 June 2019
Temperature: 17.2°C (63°F)
Dewpoint: 15.0°C (59°F) [RH = 87%]
Pressure (altimeter): 29.72 inches Hg (1006.5 mb)
[Sea-level pressure: 1006.1 mb]
Winds: from the ESE (110 degrees) at 3 MPH (3 knots; 1.5 m/s)
Visibility: 10 or more miles (16+ km)
Ceiling: at least 12,000 feet AGL
Clouds: sky clear below 12,000 feet AGL
Weather:
SOME DATA ABOVE MAY BE INACCURATE!!!
"$" is an indication the sensor requires maintenance

METAR text: KALO 160254Z AUTO 01004KT 10SM CLR 18/16 A2973 RMK AO2 SLP063 60012 T01780161 51010 $
Conditions at: KALO (WATERLOO , IA, US) observed 0254 UTC 16 June 2019
Temperature: 17.8°C (64°F)
Dewpoint: 16.1°C (61°F) [RH = 90%]
Pressure (altimeter): 29.73 inches Hg (1006.9 mb)
[Sea-level pressure: 1006.3 mb]
Winds: from the N (10 degrees) at 5 MPH (4 knots; 2.1 m/s)
Visibility: 10 or more miles (16+ km)
Ceiling: at least 12,000 feet AGL
Clouds: sky clear below 12,000 feet AGL
Weather:
SOME DATA ABOVE MAY BE INACCURATE!!!
"$" is an indication the sensor requires maintenance

METAR text: KALO 160154Z AUTO 02007KT 10SM CLR 19/17 A2972 RMK AO2 RAE19 SLP059 P0001 T01890172 $
Conditions at: KALO (WATERLOO , IA, US) observed 0154 UTC 16 June 2019
Temperature: 18.9°C (66°F)
Dewpoint: 17.2°C (63°F) [RH = 90%]
Pressure (altimeter): 29.72 inches Hg (1006.5 mb)
[Sea-level pressure: 1005.9 mb]
Winds: from the NNE (20 degrees) at 8 MPH (7 knots; 3.6 m/s)
Visibility: 10 or more miles (16+ km)
Ceiling: at least 12,000 feet AGL
Clouds: sky clear below 12,000 feet AGL
Weather:
SOME DATA ABOVE MAY BE INACCURATE!!!
"$" is an indication the sensor requires maintenance

METAR text: KALO 160054Z 01012G17KT 8SM -RA BKN110 19/17 A2972 RMK AO2 SLP060 P0011 T01890167 $
Conditions at: KALO (WATERLOO , IA, US) observed 0054 UTC 16 June 2019
Temperature: 18.9°C (66°F)
Dewpoint: 16.7°C (62°F) [RH = 87%]
Pressure (altimeter): 29.72 inches Hg (1006.5 mb)
[Sea-level pressure: 1006.0 mb]
Winds: from the N (10 degrees) at 14 MPH (12 knots; 6.2 m/s)
gusting to 20 MPH (17 knots; 8.7 m/s)
Visibility: 8 miles (13 km)
Ceiling: 11000 feet AGL
Clouds: broken clouds at 11000 feet AGL
Weather: -RA  (light rain)
SOME DATA ABOVE MAY BE INACCURATE!!!
"$" is an indication the sensor requires maintenance

METAR text: KALO 152354Z 31007KT 7SM -RA OVC110 19/17 A2970 RMK AO2 LTG DSNT N AND S SLP053 P0008 60009 T01890172 10283 20189 51010 $
Conditions at: KALO (WATERLOO , IA, US) observed 2354 UTC 15 June 2019
Temperature: 18.9°C (66°F)
Dewpoint: 17.2°C (63°F) [RH = 90%]
Pressure (altimeter): 29.70 inches Hg (1005.8 mb)
[Sea-level pressure: 1005.3 mb]
Winds: from the NW (310 degrees) at 8 MPH (7 knots; 3.6 m/s)
Visibility: 7 miles (11 km)
Ceiling: 11000 feet AGL
Clouds: overcast cloud deck at 11000 feet AGL
Weather: -RA  (light rain)
SOME DATA ABOVE MAY BE INACCURATE!!!
"$" is an indication the sensor requires maintenance

METAR text: KALO 152254Z 27005KT 6SM -RA BR FEW070 OVC110 22/20 A2970 RMK AO2 LTG DSNT SW RAB41 SLP053 P0001 T02220200 $
Conditions at: KALO (WATERLOO , IA, US) observed 2254 UTC 15 June 2019
Temperature: 22.2°C (72°F)
Dewpoint: 20.0°C (68°F) [RH = 87%]
Pressure (altimeter): 29.70 inches Hg (1005.8 mb)
[Sea-level pressure: 1005.3 mb]
Winds: from the W (270 degrees) at 6 MPH (5 knots; 2.6 m/s)
Visibility: 6 miles (10 km)
Ceiling: 11000 feet AGL
Clouds: few clouds at 7000 feet AGL
overcast cloud deck at 11000 feet AGL
Weather: -RA BR  (light rain, mist)
SOME DATA ABOVE MAY BE INACCURATE!!!
"$" is an indication the sensor requires maintenance

Forecast for: KALO (WATERLOO , IA, US)
Text: KALO 170520Z 1706/1806 03006KT P6SM BKN022
Forecast period: 0600 to 0800 UTC 17 June 2019
Forecast type: FROM: standard forecast or significant change
Winds: from the NNE (30 degrees) at 7 MPH (6 knots; 3.1 m/s)
Visibility: 6 or more miles 10+ km)
Ceiling: 2200 feet AGL
Clouds: broken clouds at 2200 feet AGL
Weather: no significant weather forecast for this period
Text: FM170800 06003KT 3SM BR BKN011
Forecast period: 0800 to 1400 UTC 17 June 2019
Forecast type: FROM: standard forecast or significant change
Winds: from the ENE (60 degrees) at 3 MPH (3 knots; 1.5 m/s)
Visibility: 3 miles (5 km)
Ceiling: 1100 feet AGL
Clouds: broken clouds at 1100 feet AGL
Weather: BR  (mist)
Text: FM171400 12006KT P6SM SCT030
Forecast period: 1400 to 1800 UTC 17 June 2019
Forecast type: FROM: standard forecast or significant change
Winds: from the ESE (120 degrees) at 7 MPH (6 knots; 3.1 m/s)
Visibility: 6 or more miles 10+ km)
Ceiling: at least 12,000 feet AGL
Clouds: scattered clouds at 3000 feet AGL
Weather: no significant weather forecast for this period
Text: FM171800 15004KT P6SM SCT030 BKN120
Forecast period: 1800 UTC 17 June 2019 to 0600 UTC 18 June 2019
Forecast type: FROM: standard forecast or significant change
Winds: from the SSE (150 degrees) at 5 MPH (4 knots; 2.1 m/s)
Visibility: 6 or more miles 10+ km)
Ceiling: 12000 feet AGL
Clouds: scattered clouds at 3000 feet AGL
broken clouds at 12000 feet AGL
Weather: no significant weather forecast for this period